Time;durP1;ratioP1;P1;durP2;ratioP2;P2;SDS_P1;SDS_P2;PMS_P1;PMS_P2;Temp;Humidity;BMP_temperature;BMP_pressure;BME280_temperature;BME280_humidity;BME280_pressure;Samples;Min_cycle;Max_cycle;Signal;HPM_P1;HPM_P2
2022/11/17 00:02:06;;;;;;;26.02;13.85;;;;;;;10.29;67.76;92671.47;5050015;28;20037;-73
2022/11/17 00:04:31;;;;;;;24.90;13.30;;;;;;;10.11;68.52;92656.16;5051348;28;20478;-74
2022/11/17 00:06:58;;;;;;;21.02;12.13;;;;;;;10.24;68.28;92669.06;5050920;28;20037;-73
2022/11/17 00:09:23;;;;;;;19.95;12.48;;;;;;;10.05;68.47;92654.84;5048541;28;20041;-74
2022/11/17 00:14:39;;;;;;;24.58;13.73;;;;;;;9.89;69.34;92644.16;5050146;28;20044;-73
2022/11/17 00:17:08;;;;;;;28.73;15.48;;;;;;;10.07;68.98;92652.63;5053583;28;20458;-75
2022/11/17 00:22:17;;;;;;;26.85;15.10;;;;;;;10.30;68.04;92662.41;5050688;28;21015;-73
2022/11/17 00:24:43;;;;;;;27.00;15.80;;;;;;;10.26;68.06;92640.28;5055366;28;20024;-73
2022/11/17 00:27:08;;;;;;;22.85;13.68;;;;;;;10.16;67.51;92630.13;5053459;28;20036;-74
2022/11/17 00:29:33;;;;;;;27.30;13.73;;;;;;;10.09;67.96;92637.88;5044872;28;20056;-74
2022/11/17 00:34:43;;;;;;;25.85;14.68;;;;;;;9.91;68.78;92655.22;5054292;28;20063;-75
2022/11/17 00:37:10;;;;;;;30.33;16.77;;;;;;;9.83;69.43;92653.44;5051784;28;20036;-74
2022/11/17 00:39:36;;;;;;;27.38;15.77;;;;;;;9.93;68.72;92676.88;5052163;28;20598;-73
2022/11/17 00:42:01;;;;;;;27.98;16.92;;;;;;;9.76;68.94;92659.34;5050259;28;20037;-73
2022/11/17 00:44:27;;;;;;;29.38;15.13;;;;;;;9.73;69.54;92643.31;5052331;28;20479;-74
2022/11/17 00:46:52;;;;;;;28.08;16.38;;;;;;;9.69;69.23;92631.81;5036925;28;20032;-74
2022/11/17 00:49:24;;;;;;;29.58;17.73;;;;;;;9.74;68.79;92619.06;5052119;28;20173;-74
2022/11/17 00:51:53;;;;;;;26.08;15.88;;;;;;;9.98;68.64;92634.16;5051262;28;20028;-74
2022/11/17 00:54:20;;;;;;;23.13;14.00;;;;;;;9.93;68.50;92642.34;5036055;28;20484;-73
2022/11/17 00:56:46;;;;;;;29.50;17.20;;;;;;;9.92;68.63;92629.44;5051248;28;20116;-76
2022/11/17 00:59:11;;;;;;;28.42;15.90;;;;;;;10.02;68.57;92624.44;5050928;28;20114;-74
2022/11/17 01:01:37;;;;;;;27.52;15.05;;;;;;;10.16;68.15;92637.31;5043433;28;20629;-75
2022/11/17 01:04:03;;;;;;;28.52;14.50;;;;;;;9.60;67.64;92565.56;5036706;28;20059;-73
2022/11/17 01:06:36;;;;;;;25.90;15.85;;;;;;;10.10;67.84;92639.44;5031520;28;20465;-74
2022/11/17 01:09:09;;;;;;;25.42;14.77;;;;;;;10.10;67.64;92636.78;5043018;28;20090;-74
2022/11/17 01:11:34;;;;;;;20.88;12.68;;;;;;;10.02;67.79;92628.97;5051253;28;20041;-73
2022/11/17 01:14:00;;;;;;;28.33;16.80;;;;;;;10.00;67.61;92623.97;5051036;28;20500;-73
2022/11/17 01:16:26;;;;;;;22.75;14.15;;;;;;;10.22;67.28;92634.06;5051068;28;20405;-73
2022/11/17 01:18:52;;;;;;;23.58;13.82;;;;;;;10.04;67.22;92646.09;5054542;28;20523;-73
2022/11/17 01:21:21;;;;;;;28.63;14.98;;;;;;;9.80;67.97;92612.41;5052628;28;20053;-75
2022/11/17 01:23:48;;;;;;;30.20;15.10;;;;;;;9.80;68.63;92606.34;5054221;28;20549;-74
2022/11/17 01:26:16;;;;;;;22.60;15.07;;;;;;;9.91;67.88;92623.34;5051108;28;20037;-74
2022/11/17 01:28:43;;;;;;;24.25;15.15;;;;;;;10.01;67.72;92622.88;5053436;28;20040;-73
2022/11/17 01:31:13;;;;;;;25.50;15.35;;;;;;;10.10;67.55;92626.16;5048314;28;20028;-75
2022/11/17 01:33:39;;;;;;;19.92;12.93;;;;;;;10.06;66.82;92608.59;5054180;28;20449;-73
2022/11/17 01:36:12;;;;;;;21.00;11.80;;;;;;;10.10;66.72;92626.16;5050724;28;20090;-76
2022/11/17 01:38:37;;;;;;;22.50;12.05;;;;;;;9.98;66.73;92578.38;5053525;28;20033;-76
2022/11/17 01:41:06;;;;;;;18.52;13.05;;;;;;;10.27;66.35;92606.47;5053325;28;20028;-76
2022/11/17 01:43:45;;;;;;;23.00;13.70;;;;;;;10.05;66.24;92586.56;5051093;28;20028;-77
2022/11/17 01:46:28;;;;;;;21.00;13.73;;;;;;;10.08;66.96;92616.97;5052023;28;20028;-73
2022/11/17 01:49:00;;;;;;;18.17;12.57;;;;;;;10.09;67.40;92608.66;5054034;28;20024;-75
2022/11/17 01:51:28;;;;;;;21.42;13.05;;;;;;;10.25;66.62;92600.75;5074964;28;20151;-75
2022/11/17 01:53:54;;;;;;;20.58;12.13;;;;;;;10.27;66.47;92601.94;5072650;28;20033;-75
2022/11/17 01:56:26;;;;;;;16.55;11.13;;;;;;;10.33;66.66;92597.94;5074880;28;20517;-76
2022/11/17 01:59:02;;;;;;;20.35;12.85;;;;;;;10.15;65.89;92572.78;5054966;28;20489;-75
2022/11/17 02:01:27;;;;;;;21.42;12.15;;;;;;;10.33;66.21;92602.47;5074569;28;20039;-75
2022/11/17 02:03:53;;;;;;;16.80;10.32;;;;;;;10.04;66.27;92569.06;5075810;28;20479;-75
2022/11/17 02:06:30;;;;;;;20.73;11.93;;;;;;;10.36;66.09;92595.72;5073443;28;20090;-77
2022/11/17 02:08:58;;;;;;;17.90;10.68;;;;;;;10.36;66.10;92595.72;5054459;28;20495;-75
2022/11/17 02:11:25;;;;;;;16.70;10.35;;;;;;;10.07;65.82;92549.81;5074213;28;20036;-76
2022/11/17 02:13:53;;;;;;;15.50;9.88;;;;;;;10.45;65.66;92583.84;5073756;28;20028;-76
2022/11/17 02:16:19;;;;;;;14.45;9.20;;;;;;;10.38;65.55;92569.59;5073768;28;20036;-75
2022/11/17 02:18:45;;;;;;;15.48;10.30;;;;;;;10.38;65.27;92582.88;5065203;28;20033;-76
2022/11/17 02:21:27;;;;;;;18.33;11.50;;;;;;;10.33;65.85;92592.63;5072261;28;20050;-75
2022/11/17 02:24:20;;;;;;;19.08;9.88;;;;;;;10.28;66.13;92584.88;5073881;28;20047;-75
2022/11/17 02:27:08;;;;;;;15.63;9.57;;;;;;;10.19;66.57;92597.56;5072421;28;20048;-75
2022/11/17 02:29:42;;;;;;;18.98;9.25;;;;;;;9.98;67.60;92610.25;5074727;28;20505;-75
2022/11/17 02:32:15;;;;;;;16.88;8.85;;;;;;;10.11;67.22;92603.81;5060762;28;20060;-75
2022/11/17 02:34:54;;;;;;;14.85;9.55;;;;;;;9.91;66.95;92558.84;5043625;28;20040;-75
2022/11/17 02:37:30;;;;;;;14.77;9.07;;;;;;;10.24;67.13;92578.72;5044250;28;20114;-75
2022/11/17 02:40:09;;;;;;;15.50;9.10;;;;;;;10.29;66.42;92573.16;5043891;28;20036;-76
2022/11/17 02:45:26;;;;;;;14.57;8.95;;;;;;;9.95;67.12;92539.22;5075131;28;20124;-75
2022/11/17 02:47:57;;;;;;;15.05;9.25;;;;;;;10.12;67.03;92554.84;5071269;28;20032;-77
2022/11/17 02:50:26;;;;;;;14.57;9.45;;;;;;;9.97;67.06;92542.34;5055736;28;20520;-75
2022/11/17 02:52:51;;;;;;;19.05;8.40;;;;;;;9.91;67.05;92527.75;5053508;28;20033;-75
2022/11/17 02:55:16;;;;;;;14.18;8.43;;;;;;;10.23;67.14;92555.91;5073520;28;20024;-75
2022/11/17 02:57:42;;;;;;;12.75;8.95;;;;;;;10.26;66.72;92565.09;5059134;28;20031;-75
2022/11/17 03:00:15;;;;;;;12.65;8.20;;;;;;;10.31;66.84;92578.91;5055256;28;20044;-75
2022/11/17 03:03:00;;;;;;;10.70;7.10;;;;;;;10.13;67.15;92572.34;5054372;28;20075;-75
2022/11/17 03:05:36;;;;;;;13.57;7.40;;;;;;;9.85;67.82;92542.38;5032864;28;20048;-75
2022/11/17 03:08:36;;;;;;;10.65;6.82;;;;;;;9.98;67.62;92535.88;5056101;28;20829;-75
2022/11/17 03:11:06;;;;;;;9.38;6.30;;;;;;;9.91;67.85;92533.06;5053115;28;20121;-75
2022/11/17 03:13:50;;;;;;;10.50;5.75;;;;;;;10.08;68.03;92569.94;5067092;28;20617;-75
2022/11/17 03:16:29;;;;;;;10.70;5.95;;;;;;;9.89;68.95;92581.19;5059212;28;20024;-75
2022/11/17 03:19:13;;;;;;;9.00;5.72;;;;;;;10.02;68.61;92571.31;5049148;28;21273;-75
2022/11/17 03:22:11;;;;;;;9.80;5.63;;;;;;;10.08;68.30;92556.66;5059532;28;20675;-75
2022/11/17 03:24:45;;;;;;;11.43;5.88;;;;;;;10.03;68.56;92567.50;5071990;28;20036;-75
2022/11/17 03:27:17;;;;;;;11.02;6.45;;;;;;;10.10;68.58;92551.00;5073345;28;20107;-75
2022/11/17 03:29:48;;;;;;;9.88;5.43;;;;;;;10.18;68.28;92556.16;5075034;28;20047;-75
2022/11/17 03:32:15;;;;;;;10.95;5.45;;;;;;;10.05;68.67;92572.50;5051661;28;20519;-76
2022/11/17 03:34:54;;;;;;;11.02;6.57;;;;;;;10.04;68.60;92545.16;5071526;28;20043;-75
2022/11/17 03:37:21;;;;;;;8.13;4.40;;;;;;;10.30;68.51;92580.00;5072585;28;20032;-75
2022/11/17 03:39:52;;;;;;;8.77;5.82;;;;;;;10.03;67.90;92543.59;5072610;28;20028;-77
2022/11/17 03:42:23;;;;;;;8.88;5.80;;;;;;;10.25;67.94;92574.19;5073723;28;20657;-75
2022/11/17 03:44:54;;;;;;;9.75;5.57;;;;;;;10.42;68.01;92581.06;5059508;28;20404;-75
2022/11/17 03:47:25;;;;;;;9.85;6.07;;;;;;;10.48;67.51;92590.34;5068014;28;20033;-75
2022/11/17 03:49:55;;;;;;;9.25;6.35;;;;;;;10.24;68.45;92570.75;5070498;28;20060;-75
2022/11/17 03:52:21;;;;;;;16.95;7.28;;;;;;;10.33;68.16;92574.00;5067640;28;20551;-75
2022/11/17 03:54:47;;;;;;;40.28;19.50;;;;;;;10.37;68.29;92566.16;5072166;28;20504;-77
2022/11/17 03:57:15;;;;;;;22.75;12.20;;;;;;;10.46;68.22;92569.44;5070119;28;20098;-75
2022/11/17 03:59:56;;;;;;;16.77;9.50;;;;;;;10.54;68.03;92557.88;5069335;28;20156;-76
2022/11/17 04:02:24;;;;;;;13.05;8.25;;;;;;;10.57;67.44;92559.81;5071501;28;20067;-75
2022/11/17 04:05:05;;;;;;;26.45;12.57;;;;;;;10.58;67.69;92560.59;5051035;28;20041;-74
2022/11/17 04:07:34;;;;;;;18.65;9.57;;;;;;;10.57;67.91;92565.16;5069396;28;20482;-75
2022/11/17 04:10:00;;;;;;;15.07;8.00;;;;;;;10.61;67.69;92568.66;5070198;28;20100;-75
2022/11/17 04:17:54;;;;;;;11.82;8.43;;;;;;;10.47;67.72;92530.31;5074566;28;20585;-75
2022/11/17 04:20:20;;;;;;;13.65;8.50;;;;;;;10.62;67.39;92545.50;5071289;28;20044;-75
2022/11/17 04:22:45;;;;;;;14.98;8.63;;;;;;;10.59;67.35;92538.22;5071493;28;20906;-76
2022/11/17 04:28:35;;;;;;;11.82;8.32;;;;;;;10.58;67.21;92518.06;5069753;28;20077;-75
2022/11/17 04:30:40;;;;;;;17.52;8.68;;;;;;;10.27;67.80;92500.97;5073493;28;20081;-75
2022/11/17 04:33:05;;;;;;;14.73;9.02;;;;;;;10.62;67.41;92533.00;5062194;28;20028;-76
2022/11/17 04:35:30;;;;;;;18.33;8.68;;;;;;;10.57;67.01;92501.34;5072382;28;20039;-75
2022/11/17 04:37:56;;;;;;;17.20;8.98;;;;;;;10.68;66.73;92514.88;5052970;28;20039;-75
2022/11/17 04:40:21;;;;;;;18.15;9.90;;;;;;;10.81;67.01;92531.53;5075059;28;20373;-74
2022/11/17 04:42:46;;;;;;;17.77;8.98;;;;;;;10.74;66.62;92516.19;5061166;28;20031;-75
2022/11/17 04:45:12;;;;;;;17.35;10.00;;;;;;;10.65;67.25;92524.34;5061368;28;20028;-76
2022/11/17 04:47:37;;;;;;;20.92;11.20;;;;;;;10.72;66.80;92518.41;5070731;28;20040;-76
2022/11/17 04:50:03;;;;;;;18.48;10.85;;;;;;;10.53;66.66;92470.47;5069985;28;20079;-76
2022/11/17 04:52:28;;;;;;;17.80;9.52;;;;;;;10.55;66.60;92470.91;5072663;28;20112;-75
2022/11/17 04:54:53;;;;;;;16.23;9.32;;;;;;;10.72;67.11;92513.09;5071509;28;20387;-75
2022/11/17 04:57:19;;;;;;;16.10;9.43;;;;;;;10.67;66.94;92494.72;5074782;28;20207;-75
2022/11/17 04:59:44;;;;;;;14.20;8.40;;;;;;;10.69;67.02;92511.13;5069366;28;20036;-76
2022/11/17 05:02:09;;;;;;;17.70;9.18;;;;;;;10.52;66.92;92466.28;5055657;28;20032;-78
2022/11/17 05:07:19;;;;;;;18.75;8.02;;;;;;;10.70;66.58;92494.06;5075557;28;20035;-77
2022/11/17 05:09:44;;;;;;;16.23;8.98;;;;;;;10.75;67.03;92499.13;5058785;28;20024;-76
2022/11/17 05:14:53;;;;;;;21.70;10.73;;;;;;;10.68;66.97;92475.00;5077757;28;20039;-75
2022/11/17 05:17:19;;;;;;;20.05;11.20;;;;;;;10.74;66.76;92495.69;5074978;28;20506;-76
2022/11/17 05:19:46;;;;;;;20.42;10.05;;;;;;;10.51;67.53;92478.81;5057597;28;20039;-75
2022/11/17 05:25:02;;;;;;;16.80;9.73;;;;;;;10.42;67.77;92453.50;5075255;28;20115;-76
2022/11/17 05:27:27;;;;;;;16.50;10.65;;;;;;;10.18;68.18;92455.19;5075250;28;20019;-76
2022/11/17 05:29:52;;;;;;;14.35;9.45;;;;;;;9.98;69.23;92436.84;5074382;28;20491;-76
2022/11/17 05:32:18;;;;;;;15.20;9.27;;;;;;;10.03;70.26;92450.66;5055643;28;20453;-74
2022/11/17 05:34:44;;;;;;;21.52;9.45;;;;;;;10.09;69.75;92459.13;5075355;28;20029;-75
2022/11/17 05:37:09;;;;;;;15.98;9.50;;;;;;;10.19;69.86;92496.59;5065430;28;20411;-76
2022/11/17 05:39:35;;;;;;;20.95;10.23;;;;;;;10.23;69.79;92491.38;5076068;28;20020;-76
2022/11/17 05:42:00;;;;;;;18.33;11.07;;;;;;;10.29;69.65;92497.97;5074154;28;20028;-75
2022/11/17 05:44:26;;;;;;;17.23;11.30;;;;;;;10.03;70.23;92493.16;5074084;28;20037;-75
2022/11/17 05:46:51;;;;;;;16.85;10.80;;;;;;;10.10;70.15;92495.22;5074476;28;20032;-76
2022/11/17 05:49:16;;;;;;;20.83;11.80;;;;;;;10.21;69.99;92507.66;5076208;28;20480;-74
2022/11/17 05:51:42;;;;;;;22.80;11.48;;;;;;;10.07;70.08;92488.72;5075121;28;20032;-75
2022/11/17 05:54:07;;;;;;;17.50;12.23;;;;;;;10.13;70.24;92487.34;5075225;28;20554;-75
2022/11/17 05:56:58;;;;;;;17.98;10.95;;;;;;;10.10;70.53;92503.97;5071842;28;20036;-75
2022/11/17 05:59:30;;;;;;;18.75;11.20;;;;;;;10.04;71.11;92493.91;5064042;28;20032;-76
2022/11/17 06:02:22;;;;;;;17.27;11.00;;;;;;;10.11;71.36;92494.88;5072205;28;20099;-74
2022/11/17 06:04:49;;;;;;;17.08;11.20;;;;;;;10.12;71.03;92483.13;5058916;28;20834;-74
2022/11/17 06:07:16;;;;;;;19.65;12.13;;;;;;;10.09;71.38;92481.16;5074335;28;20027;-75
2022/11/17 06:09:41;;;;;;;21.42;13.23;;;;;;;9.93;72.30;92493.63;5071706;28;20034;-75
2022/11/17 06:12:07;;;;;;;20.40;12.70;;;;;;;10.07;71.49;92499.34;5063271;28;20036;-75
2022/11/17 06:14:34;;;;;;;23.83;12.43;;;;;;;9.83;71.94;92478.19;5072759;28;20135;-74
2022/11/17 06:17:04;;;;;;;20.40;13.10;;;;;;;10.01;71.50;92516.63;5073044;28;20028;-75
2022/11/17 06:19:37;;;;;;;17.25;10.88;;;;;;;10.12;71.36;92532.84;5073082;28;20072;-76
2022/11/17 06:22:03;;;;;;;17.73;11.40;;;;;;;10.00;71.27;92515.09;5068895;28;20099;-75
2022/11/17 06:24:28;;;;;;;18.25;12.88;;;;;;;10.13;70.95;92539.69;5059106;28;20063;-75
2022/11/17 06:26:53;;;;;;;20.05;12.82;;;;;;;10.08;71.21;92540.72;5050891;28;20778;-74
2022/11/17 06:29:19;;;;;;;19.55;11.38;;;;;;;10.09;71.05;92550.22;5051298;28;20185;-75
2022/11/17 06:31:45;;;;;;;20.05;13.05;;;;;;;10.22;71.08;92574.88;5068808;28;20043;-75
2022/11/17 06:34:11;;;;;;;25.80;12.95;;;;;;;10.22;70.77;92593.47;5060731;28;20035;-77
2022/11/17 06:36:37;;;;;;;18.33;11.77;;;;;;;10.28;70.86;92589.44;5071414;28;20519;-75
2022/11/17 06:39:03;;;;;;;20.17;10.88;;;;;;;10.25;70.22;92585.59;5066674;28;20041;-76
2022/11/17 06:41:29;;;;;;;18.10;10.68;;;;;;;10.21;70.82;92611.28;5071341;28;20507;-75
2022/11/17 06:43:55;;;;;;;20.38;11.40;;;;;;;10.18;71.40;92646.47;5052313;28;20041;-75
2022/11/17 06:46:20;;;;;;;18.35;11.15;;;;;;;10.25;71.15;92636.06;5061070;28;20071;-75
2022/11/17 06:48:46;;;;;;;25.23;13.65;;;;;;;10.16;71.31;92656.69;5070028;28;20491;-76
2022/11/17 06:51:11;;;;;;;14.35;9.50;;;;;;;10.16;71.40;92658.56;5070433;28;20035;-75
2022/11/17 06:53:37;;;;;;;14.60;7.38;;;;;;;10.00;71.45;92641.78;5050030;28;20032;-77
2022/11/17 06:58:31;;;;;;;18.38;10.15;;;;;;;10.06;72.14;92747.47;5040270;28;20033;-75
2022/11/17 07:01:02;;;;;;;13.52;8.55;;;;;;;10.07;71.82;92722.47;5046760;28;20135;-75
2022/11/17 07:03:28;;;;;;;3.38;2.90;;;;;;;9.78;71.42;92704.91;5066795;28;20047;-76
2022/11/17 07:05:53;;;;;;;3.05;1.88;;;;;;;9.68;71.85;92701.94;5068125;28;20515;-75
2022/11/17 07:08:21;;;;;;;5.80;1.70;;;;;;;9.43;72.67;92701.19;5068147;28;20036;-75
2022/11/17 07:10:53;;;;;;;1.58;1.00;;;;;;;9.30;72.52;92673.88;5059900;28;20548;-74
2022/11/17 07:13:23;;;;;;;1.50;1.23;;;;;;;9.44;72.16;92669.00;5070942;28;20032;-76
2022/11/17 07:15:49;;;;;;;2.10;1.05;;;;;;;9.38;72.18;92658.97;5066345;28;20028;-74
2022/11/17 07:18:19;;;;;;;2.30;1.50;;;;;;;9.06;72.01;92604.09;5068031;28;20025;-74
2022/11/17 07:20:47;;;;;;;1.27;1.05;;;;;;;9.29;70.96;92632.53;5067447;28;20051;-75
2022/11/17 07:23:13;;;;;;;2.47;1.30;;;;;;;9.43;71.13;92619.72;5068646;28;20111;-75
2022/11/17 07:25:39;;;;;;;1.67;1.00;;;;;;;9.28;70.93;92591.19;5058173;28;20043;-74
2022/11/17 07:28:05;;;;;;;1.92;0.90;;;;;;;9.37;71.09;92562.66;5069650;28;20028;-75
2022/11/17 07:30:30;;;;;;;4.43;2.42;;;;;;;9.18;70.47;92528.00;5064686;28;20380;-74
2022/11/17 07:32:59;;;;;;;2.50;0.93;;;;;;;8.92;68.75;92461.25;5066307;28;20036;-74
2022/11/17 07:35:26;;;;;;;0.50;0.50;;;;;;;8.99;69.55;92466.78;5067632;28;20028;-74
2022/11/17 07:37:56;;;;;;;11.82;0.85;;;;;;;9.12;69.52;92457.72;5069206;28;20032;-75
2022/11/17 07:40:21;;;;;;;0.40;0.40;;;;;;;8.91;69.59;92444.56;5065618;28;20041;-73
2022/11/17 07:42:48;;;;;;;0.85;0.40;;;;;;;8.68;69.26;92438.22;5048061;28;20028;-75
2022/11/17 07:45:14;;;;;;;0.47;0.40;;;;;;;8.85;70.09;92466.38;5046546;28;20067;-75
2022/11/17 07:47:39;;;;;;;3.90;0.40;;;;;;;8.93;68.98;92468.88;5030584;28;20374;-74
2022/11/17 07:50:05;;;;;;;0.40;0.40;;;;;;;8.99;69.93;92441.03;5045985;28;20037;-74
2022/11/17 07:52:30;;;;;;;0.38;0.38;;;;;;;9.07;67.75;92439.34;5040786;28;20438;-74
2022/11/17 07:54:56;;;;;;;0.38;0.38;;;;;;;9.16;67.77;92433.94;5047551;28;20021;-74
2022/11/17 07:57:21;;;;;;;1.60;0.40;;;;;;;9.18;65.66;92463.56;5048283;28;20024;-75
2022/11/17 07:59:46;;;;;;;0.40;0.40;;;;;;;9.31;66.91;92473.78;5046706;28;20686;-74
2022/11/17 08:02:12;;;;;;;1.42;1.33;;;;;;;9.38;64.37;92483.84;5039361;28;20031;-74
2022/11/17 08:04:38;;;;;;;0.40;0.40;;;;;;;9.56;63.64;92503.66;5046382;28;20044;-74
2022/11/17 08:07:03;;;;;;;0.30;0.30;;;;;;;9.80;64.19;92532.00;5030018;28;20058;-74
2022/11/17 08:09:28;;;;;;;0.30;0.30;;;;;;;9.76;61.89;92488.66;5050651;28;20021;-75
2022/11/17 08:11:56;;;;;;;0.40;0.40;;;;;;;10.10;61.60;92517.25;5049314;28;20480;-76
2022/11/17 08:14:21;;;;;;;0.40;0.40;;;;;;;10.31;61.49;92541.72;5046158;28;20128;-74
2022/11/17 08:16:47;;;;;;;0.30;0.30;;;;;;;10.46;60.73;92539.44;5047742;28;20037;-75
2022/11/17 08:19:13;;;;;;;0.30;0.30;;;;;;;10.56;62.53;92550.31;5042376;28;20059;-75
2022/11/17 08:21:39;;;;;;;0.75;0.40;;;;;;;10.55;61.24;92550.66;5025065;28;20083;-74
2022/11/17 08:24:05;;;;;;;0.45;0.45;;;;;;;10.52;62.21;92551.34;5045524;28;20029;-76
2022/11/17 08:26:31;;;;;;;0.40;0.40;;;;;;;10.29;61.36;92530.63;5044762;28;20048;-74
2022/11/17 08:28:57;;;;;;;1.20;0.70;;;;;;;10.41;60.99;92548.44;5043520;28;20528;-75
2022/11/17 08:31:23;;;;;;;0.65;0.65;;;;;;;10.53;62.08;92576.81;5045147;28;20037;-75
2022/11/17 08:33:48;;;;;;;0.60;0.60;;;;;;;10.43;60.81;92558.69;5027735;28;20887;-74
2022/11/17 08:36:13;;;;;;;0.40;0.40;;;;;;;10.54;59.10;92543.81;5027595;28;20037;-75
2022/11/17 08:38:39;;;;;;;1.17;0.60;;;;;;;10.76;59.67;92577.00;5047192;28;20028;-77
2022/11/17 08:41:06;;;;;;;0.43;0.43;;;;;;;10.90;58.04;92570.13;5047961;28;20411;-76
2022/11/17 08:43:33;;;;;;;0.40;0.40;;;;;;;10.40;56.93;92524.84;5048351;28;20032;-75
2022/11/17 08:45:58;;;;;;;0.30;0.30;;;;;;;10.66;56.67;92552.44;5047380;28;20108;-75
2022/11/17 08:48:24;;;;;;;0.40;0.40;;;;;;;10.83;56.65;92588.56;5031191;28;20047;-75
2022/11/17 08:50:50;;;;;;;0.30;0.30;;;;;;;10.84;57.81;92571.50;5047591;28;20060;-75
2022/11/17 08:53:17;;;;;;;0.40;0.40;;;;;;;11.00;55.73;92592.78;5047407;28;20037;-75
2022/11/17 08:55:43;;;;;;;0.60;0.50;;;;;;;11.11;55.42;92596.44;5045195;28;20103;-74
2022/11/17 08:58:11;;;;;;;0.40;0.40;;;;;;;11.15;54.90;92584.75;5047260;28;20064;-74
2022/11/17 09:00:36;;;;;;;0.88;0.47;;;;;;;11.42;55.20;92598.28;5047946;28;20040;-75
2022/11/17 09:03:09;;;;;;;1.15;0.60;;;;;;;11.56;54.71;92593.31;5045332;28;20100;-75
2022/11/17 09:05:40;;;;;;;1.02;0.50;;;;;;;11.79;54.21;92599.50;5054038;28;20037;-75
2022/11/17 09:08:06;;;;;;;3.42;1.10;;;;;;;11.93;53.81;92589.13;5049523;28;20033;-76
2022/11/17 09:10:32;;;;;;;1.45;0.70;;;;;;;12.13;52.15;92594.44;5047989;28;20561;-75
2022/11/17 09:12:58;;;;;;;0.63;0.57;;;;;;;12.30;52.33;92608.13;5049429;28;20036;-75
2022/11/17 09:15:23;;;;;;;0.80;0.73;;;;;;;12.37;51.29;92602.19;5046147;28;20016;-75
2022/11/17 09:17:50;;;;;;;3.30;0.85;;;;;;;12.38;50.64;92569.03;5047102;28;20092;-77
2022/11/17 09:20:17;;;;;;;0.30;0.30;;;;;;;12.75;49.62;92604.03;5028713;28;20114;-75
2022/11/17 09:22:42;;;;;;;0.40;0.40;;;;;;;12.79;49.02;92591.50;5047564;28;20083;-74
2022/11/17 09:25:08;;;;;;;1.25;0.30;;;;;;;12.78;49.80;92596.06;5047824;28;20058;-75
2022/11/17 09:27:34;;;;;;;0.38;0.38;;;;;;;12.94;49.91;92584.50;5048975;28;20064;-74
2022/11/17 09:29:59;;;;;;;0.63;0.43;;;;;;;12.92;49.69;92590.19;5043960;28;20041;-77
2022/11/17 09:32:25;;;;;;;0.90;0.63;;;;;;;13.11;50.32;92602.69;5048943;28;20109;-76
2022/11/17 09:34:50;;;;;;;1.13;0.75;;;;;;;13.15;50.78;92606.97;5037049;28;20562;-75
2022/11/17 09:37:16;;;;;;;1.58;1.00;;;;;;;13.25;52.12;92610.97;5064829;28;20029;-75
2022/11/17 09:39:41;;;;;;;5.55;3.10;;;;;;;13.29;55.52;92599.19;5048812;28;20346;-77
2022/11/17 09:42:13;;;;;;;3.97;3.00;;;;;;;13.44;57.12;92608.19;5046916;28;20413;-75
2022/11/17 09:44:45;;;;;;;6.55;3.35;;;;;;;13.13;56.92;92581.78;5048363;28;20044;-74
2022/11/17 09:47:25;;;;;;;9.95;2.97;;;;;;;12.98;58.92;92612.03;5038151;28;20048;-75
2022/11/17 09:50:01;;;;;;;7.47;4.07;;;;;;;12.47;60.84;92566.91;5048400;28;20095;-76
2022/11/17 09:52:42;;;;;;;8.27;3.95;;;;;;;12.41;61.00;92587.00;5046607;28;20571;-77
2022/11/17 09:55:07;;;;;;;9.32;3.58;;;;;;;12.66;61.05;92612.25;5046231;28;20133;-74
2022/11/17 09:57:39;;;;;;;5.68;3.50;;;;;;;12.50;62.34;92616.13;5048906;28;20659;-74
2022/11/17 10:00:17;;;;;;;8.07;4.38;;;;;;;12.43;61.72;92603.41;5030111;28;20040;-74
2022/11/17 10:02:44;;;;;;;5.28;3.70;;;;;;;12.53;60.44;92615.41;5029275;28;20033;-75
2022/11/17 10:05:23;;;;;;;6.13;3.58;;;;;;;12.69;60.15;92616.09;5044722;28;20083;-74
2022/11/17 10:07:52;;;;;;;5.13;3.78;;;;;;;12.56;59.72;92602.16;5046966;28;20074;-76
2022/11/17 10:10:23;;;;;;;6.03;3.75;;;;;;;12.30;61.26;92607.38;5049321;28;20797;-75
2022/11/17 10:12:55;;;;;;;5.28;3.45;;;;;;;12.27;61.68;92568.09;5048340;28;20897;-74
2022/11/17 10:15:28;;;;;;;6.60;4.07;;;;;;;12.30;61.93;92588.72;5028757;28;20448;-75
2022/11/17 10:17:53;;;;;;;7.43;4.07;;;;;;;12.25;62.39;92612.97;5047789;28;20504;-76
2022/11/17 10:20:19;;;;;;;6.35;3.95;;;;;;;12.32;62.74;92584.53;5044622;28;20143;-74
2022/11/17 10:22:46;;;;;;;9.90;5.05;;;;;;;12.52;60.79;92606.63;5062913;28;20070;-76
2022/11/17 10:25:39;;;;;;;9.07;4.28;;;;;;;12.65;60.61;92608.06;5045193;28;20032;-74
2022/11/17 10:28:07;;;;;;;9.65;3.95;;;;;;;12.58;60.58;92594.56;5048872;28;20024;-74
2022/11/17 10:30:32;;;;;;;1.10;0.90;;;;;;;12.53;57.60;92559.41;5031640;28;20446;-75
2022/11/17 10:33:00;;;;;;;2.92;1.10;;;;;;;12.88;57.44;92592.03;5047479;28;20025;-77
2022/11/17 10:35:34;;;;;;;1.95;1.38;;;;;;;12.97;57.64;92591.78;5064367;28;20024;-75
2022/11/17 10:38:07;;;;;;;0.65;0.50;;;;;;;12.91;56.33;92590.56;5065794;28;20410;-74
2022/11/17 10:40:52;;;;;;;0.30;0.30;;;;;;;12.80;55.92;92585.84;5047760;28;20443;-75
2022/11/17 10:43:41;;;;;;;2.70;1.13;;;;;;;12.97;56.02;92579.22;5064717;28;20864;-74
2022/11/17 10:46:14;;;;;;;2.17;1.13;;;;;;;12.95;55.92;92570.06;5055695;28;20032;-75
2022/11/17 10:48:53;;;;;;;2.42;1.10;;;;;;;13.10;55.58;92585.94;5067785;28;20434;-75
2022/11/17 10:51:19;;;;;;;4.75;1.00;;;;;;;13.23;55.17;92592.63;5043188;28;20421;-76
2022/11/17 10:54:04;;;;;;;0.57;0.40;;;;;;;13.16;54.88;92592.50;5063666;28;20040;-75
2022/11/17 10:56:32;;;;;;;0.40;0.40;;;;;;;13.07;55.34;92580.53;5048647;28;20628;-75
2022/11/17 10:59:01;;;;;;;0.65;0.47;;;;;;;13.19;54.95;92591.03;5065356;28;20032;-75
2022/11/17 11:01:33;;;;;;;0.73;0.50;;;;;;;13.13;55.08;92550.50;5065775;28;20459;-75
2022/11/17 11:03:59;;;;;;;0.38;0.38;;;;;;;13.34;54.67;92582.09;5063998;28;20029;-76
2022/11/17 11:06:28;;;;;;;0.52;0.50;;;;;;;13.49;54.86;92594.53;5065918;28;20028;-75
2022/11/17 11:08:59;;;;;;;0.40;0.40;;;;;;;13.40;54.74;92596.66;5066315;28;20059;-75
2022/11/17 11:11:27;;;;;;;2.75;0.43;;;;;;;13.39;56.28;92589.81;5064798;28;20036;-74
2022/11/17 11:14:06;;;;;;;0.43;0.40;;;;;;;13.32;56.38;92563.75;5059365;28;20598;-74
2022/11/17 11:16:32;;;;;;;0.30;0.30;;;;;;;13.38;56.18;92582.91;5047136;28;21103;-76
2022/11/17 11:18:58;;;;;;;0.60;0.60;;;;;;;12.98;57.14;92558.66;5051241;28;20599;-77
2022/11/17 11:21:39;;;;;;;0.40;0.40;;;;;;;13.04;56.83;92567.91;5069386;28;20526;-75
2022/11/17 11:24:29;;;;;;;0.50;0.50;;;;;;;13.18;56.78;92597.47;5065157;28;20123;-75
2022/11/17 11:27:20;;;;;;;0.63;0.60;;;;;;;13.01;56.68;92560.59;5067862;28;20047;-75
2022/11/17 11:29:51;;;;;;;0.60;0.60;;;;;;;13.12;57.43;92591.66;5040419;28;20119;-75
2022/11/17 11:32:22;;;;;;;0.80;0.80;;;;;;;13.14;57.14;92597.44;5058640;28;20036;-76
2022/11/17 11:35:02;;;;;;;0.60;0.60;;;;;;;13.28;57.22;92600.31;5049351;28;20029;-76
2022/11/17 11:37:53;;;;;;;1.23;0.50;;;;;;;13.44;56.88;92605.53;5033038;28;20032;-76
2022/11/17 11:40:34;;;;;;;1.23;0.35;;;;;;;13.30;54.92;92586.59;5065644;28;20867;-76
2022/11/17 11:43:15;;;;;;;0.90;0.50;;;;;;;13.46;55.76;92603.25;5045024;28;20039;-77
2022/11/17 11:45:58;;;;;;;0.40;0.40;;;;;;;13.49;55.52;92591.88;5029493;28;20040;-76
2022/11/17 11:48:25;;;;;;;0.30;0.30;;;;;;;13.53;54.96;92599.91;5066983;28;20040;-76
2022/11/17 11:50:56;;;;;;;0.47;0.43;;;;;;;13.44;55.43;92602.84;5047884;28;20036;-75
2022/11/17 11:53:44;;;;;;;0.30;0.30;;;;;;;13.22;55.03;92569.72;5069322;28;20500;-75
2022/11/17 11:56:17;;;;;;;1.45;0.30;;;;;;;13.32;55.26;92592.34;5058838;28;20047;-76
2022/11/17 11:58:50;;;;;;;0.40;0.40;;;;;;;13.28;56.49;92594.22;5067620;28;20033;-74
2022/11/17 12:01:19;;;;;;;0.40;0.40;;;;;;;13.08;56.28;92576.72;5068671;28;20795;-75
2022/11/17 12:03:58;;;;;;;1.55;0.70;;;;;;;13.10;56.51;92571.81;5068877;28;20048;-75
2022/11/17 12:06:39;;;;;;;0.50;0.50;;;;;;;13.20;56.64;92576.56;5061746;28;20718;-76
2022/11/17 12:09:16;;;;;;;0.60;0.60;;;;;;;13.35;56.30;92598.91;5062337;28;20040;-74
2022/11/17 12:12:00;;;;;;;0.98;0.80;;;;;;;13.14;56.22;92572.63;5061670;28;20036;-75